Time;durP1;ratioP1;P1;durP2;ratioP2;P2;SDS_P1;SDS_P2;PMS_P1;PMS_P2;Temp;Humidity;BMP_temperature;BMP_pressure;BME280_temperature;BME280_humidity;BME280_pressure;Samples;Min_cycle;Max_cycle;Signal;HPM_P1;HPM_P2
2022/02/24 00:00:35;;;;;;;5.15;1.08;;;8.70;79.40;;;;;;5074500;28;20079;-76
2022/02/24 00:03:02;;;;;;;3.97;1.23;;;8.70;79.40;;;;;;5041834;28;20476;-76
2022/02/24 00:05:30;;;;;;;4.20;0.93;;;8.70;79.40;;;;;;5073644;28;20458;-76
2022/02/24 00:07:59;;;;;;;3.83;0.93;;;8.70;79.50;;;;;;5057922;28;20067;-76
2022/02/24 00:10:26;;;;;;;2.28;0.82;;;8.70;79.60;;;;;;5074768;28;20914;-76
2022/02/24 00:12:53;;;;;;;3.05;1.13;;;8.70;79.80;;;;;;5041564;28;20040;-81
2022/02/24 00:15:20;;;;;;;4.55;1.10;;;8.70;79.90;;;;;;5074793;28;20403;-81
2022/02/24 00:17:47;;;;;;;2.05;0.60;;;8.60;80.00;;;;;;5092768;28;20576;-81
2022/02/24 00:20:14;;;;;;;6.07;1.58;;;8.70;80.10;;;;;;5058036;28;20148;-81
2022/02/24 00:22:41;;;;;;;2.83;0.85;;;8.60;80.10;;;;;;5092551;28;20057;-81
2022/02/24 00:25:10;;;;;;;6.30;2.33;;;8.60;80.00;;;;;;5074722;28;20040;-81
2022/02/24 00:27:38;;;;;;;4.63;1.30;;;8.60;80.00;;;;;;5058172;28;20040;-81
2022/02/24 00:30:09;;;;;;;4.25;1.27;;;8.70;79.60;;;;;;5074275;28;20482;-81
2022/02/24 00:32:36;;;;;;;5.32;0.90;;;8.60;80.10;;;;;;5057252;28;20066;-81
2022/02/24 00:35:04;;;;;;;2.90;0.80;;;8.70;79.60;;;;;;5072347;28;20044;-81
2022/02/24 00:37:32;;;;;;;4.38;0.77;;;8.60;79.50;;;;;;5072307;28;20076;-81
2022/02/24 00:39:59;;;;;;;7.65;2.13;;;8.60;79.30;;;;;;5037799;28;20060;-80
2022/02/24 00:42:26;;;;;;;5.00;1.00;;;8.60;79.20;;;;;;5054607;28;20086;-81
2022/02/24 00:44:53;;;;;;;2.10;0.80;;;8.60;79.20;;;;;;5022171;28;20072;-81
2022/02/24 00:47:21;;;;;;;3.42;1.10;;;8.60;79.40;;;;;;5054814;28;20049;-82
2022/02/24 00:49:48;;;;;;;4.20;0.98;;;8.60;79.50;;;;;;5038095;28;20083;-81
2022/02/24 00:52:15;;;;;;;4.20;1.27;;;8.60;79.50;;;;;;5037695;28;20049;-82
2022/02/24 00:54:45;;;;;;;5.40;1.02;;;8.60;79.40;;;;;;5054621;28;20040;-81
2022/02/24 00:57:16;;;;;;;6.57;1.10;;;8.60;79.40;;;;;;5054284;28;20106;-81
2022/02/24 00:59:43;;;;;;;5.75;1.98;;;8.60;80.10;;;;;;5054099;28;20044;-81
2022/02/24 01:02:11;;;;;;;3.92;1.30;;;8.60;79.50;;;;;;5037558;28;20407;-81
2022/02/24 01:04:38;;;;;;;5.78;1.58;;;8.60;79.60;;;;;;5037651;28;20056;-82
2022/02/24 01:07:06;;;;;;;2.92;0.82;;;8.60;79.70;;;;;;5053956;28;20135;-81
2022/02/24 01:09:33;;;;;;;5.03;1.30;;;8.60;79.80;;;;;;5054218;28;20068;-81
2022/02/24 01:12:00;;;;;;;4.00;1.02;;;8.60;79.90;;;;;;5004913;28;20094;-81
2022/02/24 01:14:27;;;;;;;3.67;0.90;;;8.60;80.00;;;;;;5071746;28;20450;-81
2022/02/24 01:16:54;;;;;;;4.70;1.30;;;8.60;79.90;;;;;;5054888;28;20041;-81
2022/02/24 01:19:21;;;;;;;4.25;1.13;;;8.60;80.10;;;;;;5041084;28;20048;-81
2022/02/24 01:21:51;;;;;;;5.45;1.13;;;8.50;80.10;;;;;;5041277;28;20118;-82
2022/02/24 01:24:21;;;;;;;;;;;8.50;80.20;;;;;;5042193;28;20067;-82
2022/02/24 01:26:48;;;;;;;2.97;0.93;;;8.50;80.20;;;;;;5057363;28;19920;-81
2022/02/24 01:29:17;;;;;;;3.42;1.42;;;8.50;80.30;;;;;;5026190;28;20055;-81
2022/02/24 01:31:45;;;;;;;2.55;0.60;;;8.50;80.40;;;;;;5041062;28;20075;-81
2022/02/24 01:34:12;;;;;;;2.58;1.05;;;8.50;80.50;;;;;;5071581;28;20052;-81
2022/02/24 01:36:39;;;;;;;2.28;0.70;;;8.40;80.60;;;;;;5095412;28;20575;-81
2022/02/24 01:39:06;;;;;;;2.53;0.75;;;8.50;80.70;;;;;;5077307;28;20043;-81
2022/02/24 01:41:33;;;;;;;2.97;0.60;;;8.40;80.80;;;;;;5077127;28;20068;-81
2022/02/24 01:44:08;;;;;;;3.40;0.68;;;8.50;81.00;;;;;;5044005;28;20583;-81
2022/02/24 01:46:36;;;;;;;3.47;1.35;;;8.50;81.00;;;;;;5077134;28;20134;-81
2022/02/24 01:49:05;;;;;;;2.47;0.75;;;8.50;81.10;;;;;;5076936;28;20079;-81
2022/02/24 01:51:33;;;;;;;4.10;1.05;;;8.40;81.20;;;;;;5077076;28;20079;-81
2022/02/24 01:54:00;;;;;;;4.68;1.30;;;8.40;81.10;;;;;;5077049;28;20040;-81
2022/02/24 01:56:29;;;;;;;6.47;1.55;;;8.40;81.00;;;;;;5044366;28;20055;-81
2022/02/24 01:58:56;;;;;;;11.93;2.78;;;8.40;81.00;;;;;;5060297;28;20065;-81
2022/02/24 02:01:23;;;;;;;4.63;1.20;;;8.40;80.90;;;;;;5060441;28;20046;-81
2022/02/24 02:03:52;;;;;;;5.50;2.10;;;8.40;80.90;;;;;;5060500;28;20058;-82
2022/02/24 02:06:19;;;;;;;6.80;1.88;;;8.40;80.70;;;;;;5077166;28;20571;-81
2022/02/24 02:08:46;;;;;;;5.03;1.10;;;8.40;80.80;;;;;;5076666;28;20074;-81
2022/02/24 02:11:15;;;;;;;4.20;1.27;;;8.40;80.80;;;;;;5060625;28;20044;-81
2022/02/24 02:13:42;;;;;;;5.45;1.60;;;8.40;80.80;;;;;;5076596;28;20489;-82
2022/02/24 02:16:12;;;;;;;4.47;1.50;;;8.40;80.80;;;;;;5076211;28;20052;-81
2022/02/24 02:18:42;;;;;;;4.47;1.23;;;8.40;80.80;;;;;;5094403;28;20052;-81
2022/02/24 02:21:09;;;;;;;4.38;1.63;;;8.40;80.90;;;;;;5076037;28;20051;-81
2022/02/24 02:23:36;;;;;;;3.75;1.05;;;8.40;81.00;;;;;;5094410;28;20040;-81
2022/02/24 02:26:03;;;;;;;4.55;1.67;;;8.40;81.10;;;;;;5058246;28;20798;-81
2022/02/24 02:28:30;;;;;;;6.05;1.10;;;8.40;81.80;;;;;;5038829;28;20045;-81
2022/02/24 02:30:57;;;;;;;2.17;0.90;;;8.40;81.30;;;;;;5056434;28;20477;-81
2022/02/24 02:33:25;;;;;;;3.95;1.30;;;8.30;81.20;;;;;;5039362;28;20152;-81
2022/02/24 02:35:52;;;;;;;7.88;1.15;;;8.30;81.30;;;;;;5074157;28;20420;-81
2022/02/24 02:38:19;;;;;;;3.95;1.35;;;8.30;81.30;;;;;;5056164;28;20461;-81
2022/02/24 02:40:46;;;;;;;5.88;1.55;;;8.30;81.30;;;;;;5039803;28;20504;-81
2022/02/24 02:43:13;;;;;;;6.38;1.45;;;8.40;81.80;;;;;;5056057;28;20049;-76
2022/02/24 02:45:41;;;;;;;5.05;1.70;;;8.40;81.00;;;;;;5039696;28;20041;-76
2022/02/24 02:48:08;;;;;;;3.47;1.60;;;8.30;80.90;;;;;;5023099;28;20053;-76
2022/02/24 02:50:35;;;;;;;4.45;1.00;;;8.40;81.00;;;;;;5056040;28;20090;-76
2022/02/24 02:53:03;;;;;;;5.38;1.67;;;8.40;81.00;;;;;;5022782;28;20401;-76
2022/02/24 02:55:31;;;;;;;5.20;1.10;;;8.30;80.80;;;;;;5039239;28;20449;-76
2022/02/24 02:57:58;;;;;;;3.92;1.25;;;8.30;81.00;;;;;;5039411;28;20098;-76
2022/02/24 03:00:25;;;;;;;4.72;1.20;;;8.40;81.00;;;;;;5055833;28;20231;-76
2022/02/24 03:02:52;;;;;;;3.00;1.10;;;8.30;80.80;;;;;;5038772;28;20083;-76
2022/02/24 03:05:20;;;;;;;4.03;1.15;;;8.30;80.80;;;;;;5038375;28;20524;-76
2022/02/24 03:07:47;;;;;;;3.80;1.23;;;8.40;80.90;;;;;;5055721;28;20045;-76
2022/02/24 03:10:15;;;;;;;4.25;0.82;;;8.40;80.90;;;;;;5038751;28;20493;-76
2022/02/24 03:12:42;;;;;;;4.53;1.10;;;8.40;80.70;;;;;;5038551;28;20075;-76
2022/02/24 03:15:15;;;;;;;3.60;0.90;;;8.40;80.50;;;;;;5038561;28;20045;-76
2022/02/24 03:17:43;;;;;;;;;;;8.40;80.50;;;;;;5055739;28;20408;-76
2022/02/24 03:20:11;;;;;;;2.78;1.02;;;8.30;80.60;;;;;;5038331;28;19927;-76
2022/02/24 03:22:38;;;;;;;4.65;1.08;;;8.30;80.60;;;;;;5038542;28;20152;-76
2022/02/24 03:25:05;;;;;;;3.47;0.95;;;8.30;80.60;;;;;;5072964;28;20123;-76
2022/02/24 03:27:32;;;;;;;3.63;1.10;;;8.30;80.60;;;;;;5056971;28;20139;-77
2022/02/24 03:30:00;;;;;;;3.58;0.80;;;8.30;80.50;;;;;;5042279;28;20451;-77
2022/02/24 03:32:27;;;;;;;5.25;0.70;;;8.30;80.50;;;;;;5040787;28;20480;-76
2022/02/24 03:34:54;;;;;;;2.45;0.50;;;8.40;80.70;;;;;;5056652;28;20052;-76
2022/02/24 03:37:22;;;;;;;3.47;0.88;;;8.40;80.50;;;;;;5038672;28;20074;-76
2022/02/24 03:39:48;;;;;;;3.55;0.63;;;8.40;80.30;;;;;;5038220;28;20040;-76
2022/02/24 03:42:16;;;;;;;5.53;0.80;;;8.40;80.30;;;;;;5072758;28;20044;-76
2022/02/24 03:44:43;;;;;;;4.47;1.27;;;8.40;80.10;;;;;;5037922;28;20045;-76
2022/02/24 03:47:10;;;;;;;4.32;1.10;;;8.40;79.90;;;;;;5038433;28;20040;-76
2022/02/24 03:49:45;;;;;;;3.03;0.90;;;8.40;80.00;;;;;;5023569;28;20044;-76
2022/02/24 03:52:12;;;;;;;5.18;0.93;;;8.40;79.90;;;;;;5072311;28;20490;-76
2022/02/24 03:54:39;;;;;;;3.78;1.35;;;8.40;79.80;;;;;;5072136;28;20048;-76
2022/02/24 03:57:06;;;;;;;2.40;0.60;;;8.40;79.80;;;;;;5054311;28;20048;-76
2022/02/24 03:59:35;;;;;;;4.65;1.13;;;8.40;79.80;;;;;;5038203;28;20095;-76
2022/02/24 04:02:04;;;;;;;4.35;0.80;;;8.40;79.70;;;;;;5054486;28;20047;-76
2022/02/24 04:04:31;;;;;;;4.97;1.27;;;8.40;79.70;;;;;;5054816;28;20072;-76
2022/02/24 04:06:59;;;;;;;3.92;1.10;;;8.40;79.60;;;;;;5037983;28;20036;-76
2022/02/24 04:09:26;;;;;;;4.82;1.10;;;8.40;79.70;;;;;;5072201;28;20084;-76
2022/02/24 04:11:53;;;;;;;5.80;1.70;;;8.40;79.70;;;;;;5072527;28;20040;-76
2022/02/24 04:14:20;;;;;;;6.00;1.33;;;8.40;79.80;;;;;;5037924;28;20068;-76
2022/02/24 04:16:48;;;;;;;6.18;1.58;;;8.40;79.70;;;;;;5038060;28;20037;-76
2022/02/24 04:19:16;;;;;;;4.88;0.80;;;8.40;79.80;;;;;;5054435;28;20560;-76
2022/02/24 04:21:43;;;;;;;3.33;0.82;;;8.40;79.70;;;;;;5054478;28;20124;-76
2022/02/24 04:24:10;;;;;;;3.80;0.80;;;8.40;79.80;;;;;;5037516;28;20420;-76
2022/02/24 04:26:37;;;;;;;2.85;0.82;;;8.40;80.30;;;;;;5037469;28;20048;-76
2022/02/24 04:29:04;;;;;;;3.22;0.77;;;8.40;79.70;;;;;;5037866;28;20037;-76
2022/02/24 04:31:31;;;;;;;4.10;0.88;;;8.40;79.80;;;;;;5054478;28;20033;-76
2022/02/24 04:33:59;;;;;;;6.43;0.90;;;8.40;79.70;;;;;;5021095;28;20497;-76
2022/02/24 04:36:26;;;;;;;3.08;0.70;;;8.40;79.70;;;;;;5037794;28;20094;-76
2022/02/24 04:38:53;;;;;;;3.15;0.65;;;8.40;79.60;;;;;;5037694;28;20090;-76
2022/02/24 04:41:20;;;;;;;4.03;0.70;;;8.40;79.80;;;;;;5054256;28;20384;-76
2022/02/24 04:43:47;;;;;;;4.13;0.90;;;8.40;79.90;;;;;;5037956;28;20090;-76
2022/02/24 04:46:17;;;;;;;3.78;0.90;;;8.40;79.90;;;;;;5054723;28;20040;-77
2022/02/24 04:48:46;;;;;;;4.75;0.88;;;8.40;80.00;;;;;;5038045;28;20044;-76
2022/02/24 04:51:15;;;;;;;2.90;0.70;;;8.40;80.00;;;;;;5037914;28;20481;-76
2022/02/24 04:53:42;;;;;;;5.22;1.02;;;8.40;80.20;;;;;;5025023;28;20049;-76
2022/02/24 04:56:09;;;;;;;2.35;0.75;;;8.40;80.30;;;;;;5025291;28;20120;-76
2022/02/24 04:58:36;;;;;;;2.60;0.98;;;8.40;80.30;;;;;;5041187;28;20063;-76
2022/02/24 05:01:03;;;;;;;5.03;0.95;;;8.40;80.50;;;;;;5041363;28;20060;-76
2022/02/24 05:03:30;;;;;;;4.00;0.95;;;8.30;80.60;;;;;;5041157;28;20045;-76
2022/02/24 05:05:57;;;;;;;3.17;0.98;;;8.30;80.70;;;;;;5024669;28;20036;-76
2022/02/24 05:08:24;;;;;;;3.20;1.08;;;8.30;80.90;;;;;;5057301;28;20094;-76
2022/02/24 05:10:52;;;;;;;2.88;1.23;;;8.30;81.00;;;;;;5057541;28;20037;-76
2022/02/24 05:13:20;;;;;;;2.78;1.02;;;8.30;81.10;;;;;;5041122;28;20070;-76
2022/02/24 05:15:49;;;;;;;2.33;0.85;;;8.30;81.10;;;;;;5075302;28;20068;-76
2022/02/24 05:18:16;;;;;;;3.63;1.15;;;8.30;81.20;;;;;;5041177;28;20059;-76
2022/02/24 05:20:43;;;;;;;3.15;1.00;;;8.30;81.10;;;;;;5057570;28;20110;-76
2022/02/24 05:23:10;;;;;;;3.80;1.15;;;8.30;81.00;;;;;;5057060;28;20075;-76
2022/02/24 05:25:37;;;;;;;5.93;1.05;;;8.30;81.00;;;;;;5056963;28;20094;-76
2022/02/24 05:28:09;;;;;;;7.32;1.10;;;8.30;81.00;;;;;;5040538;28;20443;-76
2022/02/24 05:30:37;;;;;;;4.53;1.02;;;8.30;81.10;;;;;;5057296;28;20047;-76
2022/02/24 05:33:05;;;;;;;4.30;1.10;;;8.30;81.20;;;;;;5056985;28;20404;-76
2022/02/24 05:35:33;;;;;;;4.88;1.00;;;8.30;81.20;;;;;;5024055;28;20110;-76
2022/02/24 05:37:59;;;;;;;3.85;1.10;;;8.30;81.30;;;;;;5040488;28;20055;-76
2022/02/24 05:40:27;;;;;;;5.68;1.83;;;8.30;81.30;;;;;;5056982;28;20090;-76
2022/02/24 05:42:54;;;;;;;4.20;0.90;;;8.30;81.30;;;;;;5057966;28;20052;-77
2022/02/24 05:45:21;;;;;;;3.25;0.80;;;8.30;81.40;;;;;;5059588;28;20048;-76
2022/02/24 05:47:48;;;;;;;3.97;1.55;;;8.30;81.40;;;;;;5044213;28;20044;-76
2022/02/24 05:50:15;;;;;;;3.38;0.95;;;8.30;81.40;;;;;;5095121;28;20118;-77
2022/02/24 05:52:45;;;;;;;4.65;1.00;;;8.30;81.50;;;;;;5060663;28;20102;-76
2022/02/24 05:55:12;;;;;;;5.95;0.95;;;8.30;81.50;;;;;;5095015;28;20044;-76
2022/02/24 05:57:44;;;;;;;5.10;1.35;;;8.30;81.60;;;;;;5060169;28;20040;-76
2022/02/24 06:00:12;;;;;;;4.85;0.85;;;8.30;82.20;;;;;;5094863;28;20048;-76
2022/02/24 06:02:39;;;;;;;3.03;0.70;;;8.30;81.60;;;;;;5043822;28;20044;-76
2022/02/24 06:05:07;;;;;;;2.35;0.88;;;8.30;81.70;;;;;;5059848;28;20040;-76
2022/02/24 06:07:34;;;;;;;2.72;0.88;;;8.30;82.40;;;;;;5043733;28;20056;-76
2022/02/24 06:10:02;;;;;;;4.00;0.70;;;8.30;81.90;;;;;;5059989;28;20043;-76
2022/02/24 06:12:29;;;;;;;3.75;1.20;;;8.30;81.90;;;;;;5043894;28;20036;-76
2022/02/24 06:14:56;;;;;;;2.55;1.00;;;8.30;81.90;;;;;;5059789;28;20519;-76
2022/02/24 06:17:23;;;;;;;5.78;1.17;;;8.30;81.90;;;;;;5059896;28;20074;-76
2022/02/24 06:19:53;;;;;;;4.25;0.98;;;8.30;82.00;;;;;;5076203;28;20044;-76
2022/02/24 06:22:20;;;;;;;7.13;1.30;;;8.30;82.10;;;;;;5059553;28;20062;-76
2022/02/24 06:24:47;;;;;;;4.97;1.05;;;8.30;82.10;;;;;;5059637;28;20043;-76
2022/02/24 06:27:20;;;;;;;2.55;0.65;;;8.30;82.20;;;;;;5060703;28;20495;-76
2022/02/24 06:29:48;;;;;;;3.78;0.77;;;8.30;82.20;;;;;;5060186;28;20492;-76
2022/02/24 06:32:15;;;;;;;3.40;0.77;;;8.30;82.20;;;;;;5059858;28;20036;-76
2022/02/24 06:34:56;;;;;;;5.63;1.15;;;8.30;82.30;;;;;;5045142;28;20449;-76
2022/02/24 06:37:23;;;;;;;4.07;1.08;;;8.30;82.40;;;;;;5060139;28;20067;-81
2022/02/24 06:39:51;;;;;;;6.35;0.80;;;8.30;82.40;;;;;;5059993;28;20050;-76
2022/02/24 06:42:18;;;;;;;4.93;1.17;;;8.20;82.30;;;;;;5060200;28;20070;-77
2022/02/24 06:44:45;;;;;;;3.10;1.00;;;8.30;82.40;;;;;;5043263;28;20044;-76
2022/02/24 06:47:13;;;;;;;3.00;0.90;;;8.30;82.30;;;;;;5060858;28;20090;-76
2022/02/24 06:49:41;;;;;;;3.58;0.70;;;8.30;82.20;;;;;;5077956;28;20071;-80
2022/02/24 06:52:11;;;;;;;3.30;1.15;;;8.30;82.30;;;;;;5061746;28;20054;-80
2022/02/24 06:54:41;;;;;;;2.78;0.70;;;8.30;82.40;;;;;;5060559;28;20047;-80
2022/02/24 06:57:08;;;;;;;3.45;1.13;;;8.30;82.40;;;;;;5060371;28;20040;-79
2022/02/24 06:59:37;;;;;;;3.90;0.70;;;8.30;82.30;;;;;;5060910;28;20484;-78
2022/02/24 07:02:08;;;;;;;4.38;1.00;;;8.30;82.40;;;;;;5075242;28;20052;-79
2022/02/24 07:04:35;;;;;;;5.43;0.88;;;8.30;82.40;;;;;;5042725;28;20495;-79
2022/02/24 07:07:04;;;;;;;3.72;0.75;;;8.30;82.30;;;;;;5058913;28;20048;-79
2022/02/24 07:09:31;;;;;;;5.32;0.88;;;8.30;82.30;;;;;;5026050;28;20075;-79
2022/02/24 07:11:59;;;;;;;4.15;0.70;;;8.30;82.40;;;;;;5042539;28;20039;-78
2022/02/24 07:14:26;;;;;;;3.28;0.70;;;8.30;82.40;;;;;;5058577;28;20523;-78
2022/02/24 07:16:53;;;;;;;3.97;1.23;;;8.30;82.50;;;;;;5042242;28;20044;-77
2022/02/24 07:19:20;;;;;;;4.07;0.80;;;8.30;82.50;;;;;;5058604;28;20467;-77
2022/02/24 07:21:47;;;;;;;4.57;1.05;;;8.30;82.60;;;;;;5075258;28;20046;-80
2022/02/24 07:24:14;;;;;;;8.48;0.98;;;8.40;82.50;;;;;;5042151;28;20048;-79
2022/02/24 07:26:41;;;;;;;3.75;0.60;;;8.40;82.60;;;;;;5058448;28;20496;-79
2022/02/24 07:29:09;;;;;;;2.10;0.60;;;8.40;82.70;;;;;;5059172;28;20036;-79
2022/02/24 07:31:36;;;;;;;3.13;0.73;;;8.40;82.70;;;;;;5075297;28;20131;-79
2022/02/24 07:34:04;;;;;;;4.35;0.70;;;8.40;82.80;;;;;;5058690;28;20040;-79
2022/02/24 07:36:33;;;;;;;4.75;0.60;;;8.40;82.90;;;;;;5026168;28;20156;-79
2022/02/24 07:39:00;;;;;;;3.20;0.80;;;8.40;82.80;;;;;;5075127;28;20154;-82
2022/02/24 07:41:27;;;;;;;2.42;0.70;;;8.30;82.90;;;;;;5058712;28;20044;-82
2022/02/24 07:43:54;;;;;;;2.83;0.80;;;8.30;83.00;;;;;;5058574;28;20048;-83
2022/02/24 07:46:22;;;;;;;1.77;0.60;;;8.30;83.20;;;;;;5058553;28;20047;-81
2022/02/24 07:48:52;;;;;;;1.58;0.50;;;8.30;83.40;;;;;;5041701;28;20036;-80
2022/02/24 07:51:19;;;;;;;2.88;0.50;;;8.20;84.00;;;;;;5037224;28;20032;-81
2022/02/24 07:53:46;;;;;;;4.00;0.70;;;8.20;83.60;;;;;;5072857;28;20052;-81
2022/02/24 07:56:15;;;;;;;2.20;0.63;;;8.20;83.70;;;;;;5038585;28;20048;-77
2022/02/24 07:58:42;;;;;;;3.70;0.70;;;8.20;83.70;;;;;;5054675;28;20127;-76
2022/02/24 08:01:09;;;;;;;4.75;0.95;;;8.30;83.70;;;;;;5054083;28;20052;-77
2022/02/24 08:03:37;;;;;;;3.10;0.65;;;8.20;83.70;;;;;;5037203;28;20055;-76
2022/02/24 08:06:04;;;;;;;3.40;0.82;;;8.20;83.80;;;;;;5021717;28;20349;-76
2022/02/24 08:08:31;;;;;;;8.00;1.40;;;8.30;83.90;;;;;;5038040;28;20036;-77
2022/02/24 08:10:58;;;;;;;2.90;0.90;;;8.30;83.80;;;;;;5037944;28;20403;-77
2022/02/24 08:13:25;;;;;;;3.13;1.17;;;8.40;83.70;;;;;;5037993;28;20044;-77
2022/02/24 08:15:52;;;;;;;2.35;0.50;;;8.40;83.50;;;;;;5022100;28;20461;-76
2022/02/24 08:18:21;;;;;;;1.65;0.40;;;8.40;83.50;;;;;;5038729;28;20098;-77
2022/02/24 08:20:48;;;;;;;3.08;0.60;;;8.50;83.60;;;;;;5038163;28;20076;-77
2022/02/24 08:23:18;;;;;;;2.53;0.90;;;8.50;83.60;;;;;;5072473;28;20044;-77
2022/02/24 08:25:45;;;;;;;2.65;0.60;;;8.60;83.60;;;;;;5038135;28;20066;-77
2022/02/24 08:28:12;;;;;;;3.47;0.90;;;8.50;83.50;;;;;;5024378;28;20040;-77
2022/02/24 08:30:39;;;;;;;4.10;0.60;;;8.50;83.60;;;;;;5025723;28;20072;-77
2022/02/24 08:33:07;;;;;;;2.30;0.60;;;8.50;83.90;;;;;;5020752;28;20509;-77
2022/02/24 08:35:36;;;;;;;2.88;0.60;;;8.40;84.00;;;;;;5038320;28;20090;-77
2022/02/24 08:38:05;;;;;;;4.63;1.38;;;8.40;84.10;;;;;;5022445;28;20037;-77
2022/02/24 08:40:32;;;;;;;3.78;0.85;;;8.40;84.20;;;;;;5022142;28;20959;-82
2022/02/24 08:42:59;;;;;;;2.63;0.60;;;8.40;84.10;;;;;;5021981;28;20110;-83
2022/02/24 08:45:27;;;;;;;4.10;0.60;;;8.40;84.10;;;;;;5022443;28;20099;-77
2022/02/24 08:47:55;;;;;;;3.08;1.00;;;8.40;83.90;;;;;;5021863;28;20037;-77
2022/02/24 08:50:22;;;;;;;2.50;0.50;;;8.50;83.80;;;;;;5038362;28;20090;-77
2022/02/24 08:53:03;;;;;;;4.68;0.70;;;8.50;83.80;;;;;;5023393;28;20095;-77
2022/02/24 08:55:31;;;;;;;5.35;0.80;;;8.70;83.70;;;;;;5005611;28;20037;-83
2022/02/24 08:57:59;;;;;;;2.90;0.73;;;8.70;83.20;;;;;;5021548;28;20122;-77
2022/02/24 09:00:28;;;;;;;2.72;0.68;;;8.80;83.00;;;;;;5038650;28;20033;-83
2022/02/24 09:02:55;;;;;;;1.80;0.55;;;8.80;82.90;;;;;;5021665;28;20075;-77
2022/02/24 09:05:23;;;;;;;2.75;0.90;;;8.90;82.90;;;;;;5021975;28;20045;-77
2022/02/24 09:07:50;;;;;;;2.03;0.57;;;9.00;82.70;;;;;;5037952;28;20485;-77
2022/02/24 09:10:34;;;;;;;4.78;0.50;;;9.00;82.70;;;;;;5055714;28;20037;-77
2022/02/24 09:13:01;;;;;;;4.72;1.08;;;9.00;82.50;;;;;;5023066;28;20057;-83
2022/02/24 09:15:32;;;;;;;4.50;0.93;;;9.00;82.30;;;;;;5037704;28;20056;-77
2022/02/24 09:18:06;;;;;;;5.07;1.05;;;9.10;82.30;;;;;;5022105;28;20045;-77
2022/02/24 09:20:41;;;;;;;2.70;0.80;;;9.10;82.10;;;;;;5037588;28;20051;-83
2022/02/24 09:23:09;;;;;;;6.00;1.00;;;9.00;81.90;;;;;;5021327;28;20045;-83
2022/02/24 09:25:38;;;;;;;2.03;0.55;;;9.00;81.80;;;;;;5037479;28;20045;-77
2022/02/24 09:28:05;;;;;;;3.50;0.60;;;9.00;81.80;;;;;;5012702;28;20037;-77
2022/02/24 09:30:32;;;;;;;4.05;0.73;;;9.10;81.50;;;;;;5018876;28;20063;-77
2022/02/24 09:33:05;;;;;;;3.80;0.70;;;9.20;81.50;;;;;;5022553;28;20079;-77
2022/02/24 09:35:33;;;;;;;3.63;0.60;;;9.20;81.10;;;;;;5037730;28;20048;-77
2022/02/24 09:38:00;;;;;;;2.80;0.70;;;9.30;80.90;;;;;;5052737;28;20044;-77
2022/02/24 09:40:30;;;;;;;1.83;0.52;;;9.30;80.70;;;;;;5083406;28;20051;-77
2022/02/24 09:43:19;;;;;;;2.25;0.60;;;9.30;80.60;;;;;;5060379;28;20133;-77
2022/02/24 09:45:49;;;;;;;1.90;0.50;;;9.30;80.80;;;;;;5056464;28;20055;-77
2022/02/24 09:48:19;;;;;;;5.03;0.77;;;9.30;80.50;;;;;;5055331;28;20049;-77
2022/02/24 09:50:57;;;;;;;3.58;0.60;;;9.30;80.40;;;;;;5073403;28;20477;-77
2022/02/24 09:53:27;;;;;;;4.10;0.60;;;9.40;80.30;;;;;;5055633;28;20074;-77
2022/02/24 09:55:54;;;;;;;2.92;0.50;;;9.40;80.30;;;;;;5055657;28;20040;-77
2022/02/24 09:58:21;;;;;;;3.38;0.70;;;9.40;80.20;;;;;;5039432;28;20072;-77
2022/02/24 10:00:49;;;;;;;3.25;0.70;;;9.50;80.20;;;;;;5039064;28;20045;-76
2022/02/24 10:03:48;;;;;;;7.40;0.82;;;9.50;79.90;;;;;;5055620;28;20036;-79
2022/02/24 10:06:16;;;;;;;3.08;0.60;;;9.70;79.40;;;;;;5012284;28;20041;-76
2022/02/24 10:08:48;;;;;;;3.40;0.45;;;9.70;79.20;;;;;;5039535;28;20451;-78
2022/02/24 10:11:20;;;;;;;2.50;0.50;;;9.80;79.00;;;;;;5038905;28;20114;-78
2022/02/24 10:14:07;;;;;;;2.25;1.02;;;9.90;78.80;;;;;;5038888;28;20150;-77
2022/02/24 10:16:56;;;;;;;4.97;0.80;;;10.00;78.40;;;;;;5038956;28;20097;-77
2022/02/24 10:19:28;;;;;;;3.00;0.60;;;10.00;78.10;;;;;;5055374;28;20082;-76
2022/02/24 10:22:05;;;;;;;4.03;0.60;;;10.00;78.00;;;;;;5055023;28;20048;-78
2022/02/24 10:24:32;;;;;;;3.25;0.70;;;10.00;78.00;;;;;;5055357;28;20451;-76
2022/02/24 10:27:19;;;;;;;4.03;0.60;;;10.10;77.70;;;;;;5042076;28;20127;-76
2022/02/24 10:30:04;;;;;;;3.67;0.55;;;10.20;77.60;;;;;;5093008;28;20040;-76
2022/02/24 10:32:37;;;;;;;2.30;0.40;;;10.30;77.60;;;;;;5061787;28;1112420;-79
2022/02/24 10:35:37;;;;;;;2.50;0.60;;;10.40;77.40;;;;;;5056219;28;20372;-80
2022/02/24 10:38:06;;;;;;;2.42;0.57;;;10.30;77.10;;;;;;5023825;28;20053;-80
2022/02/24 10:40:38;;;;;;;2.85;0.50;;;10.20;77.00;;;;;;5073793;28;20444;-80
2022/02/24 10:43:08;;;;;;;3.40;0.82;;;10.10;77.10;;;;;;5055950;28;20037;-81
2022/02/24 10:45:36;;;;;;;4.10;0.80;;;10.10;77.40;;;;;;5056062;28;20044;-81
2022/02/24 10:48:06;;;;;;;4.00;0.57;;;10.10;77.50;;;;;;5039517;28;20040;-82
2022/02/24 10:50:56;;;;;;;5.53;0.77;;;10.20;77.40;;;;;;5038884;28;20102;-82
2022/02/24 10:53:28;;;;;;;5.35;0.90;;;10.20;77.00;;;;;;5073572;28;20037;-82
2022/02/24 10:56:11;;;;;;;3.63;0.80;;;10.30;77.20;;;;;;5039361;28;20778;-82
2022/02/24 10:58:43;;;;;;;3.95;0.68;;;10.40;76.90;;;;;;5073526;28;20058;-82
2022/02/24 11:01:20;;;;;;;3.08;0.85;;;10.40;76.60;;;;;;5055807;28;20055;-81
2022/02/24 11:03:56;;;;;;;4.28;1.08;;;10.40;76.70;;;;;;5039001;28;20067;-82
2022/02/24 11:06:26;;;;;;;4.63;0.95;;;10.40;76.50;;;;;;5055556;28;20041;-82
2022/02/24 11:08:56;;;;;;;2.70;0.55;;;10.40;76.40;;;;;;5073219;28;20048;-81
2022/02/24 11:11:29;;;;;;;2.70;0.75;;;10.40;76.50;;;;;;5055570;28;20047;-81
2022/02/24 11:14:01;;;;;;;2.83;0.57;;;10.30;76.50;;;;;;5055504;28;20039;-81
2022/02/24 11:16:29;;;;;;;6.40;0.75;;;10.40;76.40;;;;;;5055391;28;20102;-81
2022/02/24 11:18:59;;;;;;;3.17;0.73;;;10.50;76.40;;;;;;5055397;28;20526;-82
2022/02/24 11:21:28;;;;;;;6.18;0.93;;;10.50;75.80;;;;;;5050476;28;20059;-80
2022/02/24 11:23:56;;;;;;;2.75;0.60;;;10.60;75.60;;;;;;5053018;28;20069;-83
2022/02/24 11:26:41;;;;;;;4.28;0.50;;;10.70;75.60;;;;;;5018691;28;20098;-82
2022/02/24 11:29:38;;;;;;;5.47;0.60;;;10.80;75.50;;;;;;5019105;28;20095;-83
2022/02/24 11:32:12;;;;;;;2.33;0.50;;;10.90;75.10;;;;;;5018773;28;20048;-83
2022/02/24 11:35:10;;;;;;;4.97;0.68;;;11.00;74.90;;;;;;5020580;28;20084;-81
2022/02/24 11:37:44;;;;;;;2.47;0.50;;;11.20;74.40;;;;;;5054834;28;20052;-81
2022/02/24 11:40:22;;;;;;;2.17;0.57;;;11.40;74.40;;;;;;5055077;28;20045;-81
2022/02/24 11:43:03;;;;;;;2.28;0.63;;;11.60;73.20;;;;;;5038426;28;20102;-81
2022/02/24 11:45:35;;;;;;;4.50;0.50;;;11.70;72.80;;;;;;5055145;28;20045;-81
2022/02/24 11:48:05;;;;;;;2.97;0.40;;;11.70;72.30;;;;;;5072685;28;20083;-83
2022/02/24 11:50:38;;;;;;;2.65;0.50;;;11.80;72.40;;;;;;5054996;28;20378;-83
2022/02/24 11:53:08;;;;;;;2.72;0.50;;;11.80;72.10;;;;;;5054503;28;20041;-83
2022/02/24 11:56:02;;;;;;;1.92;0.40;;;11.80;71.80;;;;;;5073290;28;20090;-79
2022/02/24 11:58:51;;;;;;;3.50;0.60;;;11.80;71.40;;;;;;5054541;28;20056;-80
2022/02/24 12:01:26;;;;;;;4.10;0.60;;;11.70;71.50;;;;;;5054720;28;20090;-82
2022/02/24 12:04:00;;;;;;;3.85;0.40;;;11.80;71.60;;;;;;5054479;28;20048;-82
2022/02/24 12:06:37;;;;;;;3.97;0.50;;;11.80;72.50;;;;;;5054348;28;20094;-81
2022/02/24 12:09:20;;;;;;;3.15;0.50;;;11.90;71.70;;;;;;5038392;28;20041;-83
2022/02/24 12:11:55;;;;;;;2.58;0.40;;;11.90;70.80;;;;;;5054462;28;20044;-84
2022/02/24 12:14:22;;;;;;;2.10;0.50;;;11.90;70.90;;;;;;5054790;28;20118;-82
2022/02/24 12:17:02;;;;;;;1.92;0.50;;;11.90;71.10;;;;;;5054939;28;20094;-84
2022/02/24 12:19:45;;;;;;;2.30;0.40;;;11.90;70.60;;;;;;5055001;28;20090;-81
2022/02/24 12:22:20;;;;;;;3.55;0.47;;;11.70;70.40;;;;;;5055307;28;20068;-82
2022/02/24 12:24:48;;;;;;;3.17;0.93;;;11.60;71.00;;;;;;5075337;28;20090;-81
2022/02/24 12:27:32;;;;;;;2.42;0.40;;;11.50;71.20;;;;;;5057302;28;20481;-82
2022/02/24 12:30:20;;;;;;;3.05;0.50;;;11.50;71.10;;;;;;5038511;28;20041;-84
2022/02/24 12:32:50;;;;;;;4.25;0.50;;;11.60;70.50;;;;;;5051908;28;20044;-87
2022/02/24 12:35:21;;;;;;;3.15;0.63;;;11.60;70.60;;;;;;5034347;28;20098;-82
2022/02/24 12:37:49;;;;;;;1.85;0.32;;;11.70;70.80;;;;;;5037577;28;20485;-83
2022/02/24 12:40:33;;;;;;;2.58;0.47;;;11.80;71.50;;;;;;5051997;28;20512;-83
2022/02/24 12:43:04;;;;;;;1.67;0.30;;;11.90;70.50;;;;;;5026462;28;20071;-80
2022/02/24 12:45:33;;;;;;;1.42;0.20;;;11.90;70.40;;;;;;5052395;28;20075;-79
2022/02/24 12:48:08;;;;;;;1.60;0.20;;;11.90;70.40;;;;;;5019834;28;20045;-79
2022/02/24 12:50:42;;;;;;;3.47;0.82;;;12.00;70.60;;;;;;5034578;28;20099;-81
2022/02/24 12:53:11;;;;;;;2.35;0.25;;;12.00;70.30;;;;;;5034370;28;20045;-81
2022/02/24 12:55:40;;;;;;;1.75;0.30;;;11.90;70.40;;;;;;5017931;28;20056;-82
2022/02/24 12:58:13;;;;;;;3.92;0.50;;;11.90;70.60;;;;;;5052158;28;20094;-82
2022/02/24 13:00:42;;;;;;;2.70;0.63;;;11.90;70.90;;;;;;5034343;28;20041;-83
2022/02/24 13:03:10;;;;;;;2.78;0.82;;;11.80;70.70;;;;;;5018208;28;20420;-82
2022/02/24 13:05:49;;;;;;;2.95;0.40;;;11.80;70.40;;;;;;5017694;28;20487;-81
2022/02/24 13:11:03;;;;;;;2.10;0.30;;;11.80;70.30;;;;;;5034071;28;20052;-83